createdAt,value
2022-10-15T00:02:21.051Z,99865.63
2022-10-15T00:04:50.864Z,99859.19
2022-10-15T00:07:17.615Z,99861.69
2022-10-15T00:09:44.544Z,99869.44
2022-10-15T00:12:11.335Z,99863.19
2022-10-15T00:14:37.957Z,99864.88
2022-10-15T00:17:04.660Z,99861.97
2022-10-15T00:19:31.640Z,99873.66
2022-10-15T00:21:58.439Z,99867.19
2022-10-15T00:24:25.268Z,99863.66
2022-10-15T00:27:24.410Z,99865.31
2022-10-15T00:29:51.466Z,99867.84
2022-10-15T00:32:18.560Z,99862.44
2022-10-15T00:34:45.159Z,99862.25
2022-10-15T00:37:12.029Z,99862.25
2022-10-15T00:39:39.121Z,99848.91
2022-10-15T00:42:06.016Z,99856.47
2022-10-15T00:44:33.560Z,99850.88
2022-10-15T00:47:57.389Z,99845.66
2022-10-15T00:50:27.806Z,99857.13
2022-10-15T00:53:12.391Z,99846.13
2022-10-15T00:55:44.350Z,99842.19
2022-10-15T00:58:17.829Z,99845.72
2022-10-15T01:00:44.743Z,99845.56
2022-10-15T01:03:13.983Z,99844.91
2022-10-15T01:09:06.036Z,99842.47
2022-10-15T01:12:10.487Z,99837.69
2022-10-15T01:15:06.934Z,99832.28
2022-10-15T01:17:53.397Z,99830.22
2022-10-15T01:21:04.086Z,99825.66
2022-10-15T01:24:34.405Z,99819.03
2022-10-15T01:27:38.931Z,99819.50
2022-10-15T01:30:40.628Z,99822.38
2022-10-15T01:34:01.208Z,99823.03
2022-10-15T01:36:55.171Z,99813.91
2022-10-15T01:39:39.605Z,99812.03
2022-10-15T01:42:33.305Z,99818.28
2022-10-15T01:45:20.278Z,99808.28
2022-10-15T01:47:59.941Z,99816.22
2022-10-15T01:50:32.061Z,99813.50
2022-10-15T01:53:02.173Z,99802.50
2022-10-15T01:55:33.121Z,99805.00
2022-10-15T01:58:03.559Z,99809.00
2022-10-15T02:00:30.334Z,99799.00
2022-10-15T02:03:02.020Z,99797.34
2022-10-15T02:05:40.889Z,99805.06
2022-10-15T02:08:34.616Z,99798.63
2022-10-15T02:11:13.405Z,99799.47
2022-10-15T02:14:15.671Z,99793.66
2022-10-15T02:17:01.963Z,99794.31
2022-10-15T02:19:54.927Z,99797.84
2022-10-15T02:23:10.208Z,99796.00
2022-10-15T02:25:40.854Z,99792.25
2022-10-15T02:28:16.188Z,99786.00
2022-10-15T02:30:50.926Z,99786.66
2022-10-15T02:33:21.520Z,99782.25
2022-10-15T02:35:54.889Z,99782.72
2022-10-15T02:38:27.647Z,99780.59
2022-10-15T02:40:58.556Z,99768.72
2022-10-15T02:43:25.328Z,99767.88
2022-10-15T02:45:55.131Z,99774.13
2022-10-15T02:48:25.745Z,99777.06
2022-10-15T02:50:57.673Z,99784.13
2022-10-15T02:53:24.442Z,99779.53
2022-10-15T02:55:51.284Z,99786.00
2022-10-15T02:58:18.204Z,99778.06
2022-10-15T03:00:44.997Z,99778.56
2022-10-15T03:03:17.530Z,99783.25
2022-10-15T03:05:44.409Z,99784.22
2022-10-15T03:08:11.162Z,99781.44
2022-10-15T03:10:37.845Z,99773.06
2022-10-15T03:13:06.482Z,99783.59
2022-10-15T03:15:33.625Z,99777.25
2022-10-15T03:18:00.448Z,99779.03
2022-10-15T03:20:27.192Z,99773.72
2022-10-15T03:22:53.911Z,99777.00
2022-10-15T03:25:20.650Z,99771.13
2022-10-15T03:27:48.569Z,99775.78
2022-10-15T03:30:15.211Z,99775.28
2022-10-15T03:35:13.790Z,99779.19
2022-10-15T03:37:42.698Z,99781.34
2022-10-15T03:40:13.629Z,99773.56
2022-10-15T03:42:43.455Z,99778.03
2022-10-15T03:45:13.645Z,99776.63
2022-10-15T03:47:40.404Z,99782.03
2022-10-15T03:50:07.620Z,99793.31
2022-10-15T03:52:34.466Z,99791.25
2022-10-15T03:55:01.200Z,99794.78
2022-10-15T03:57:28.253Z,99789.03
2022-10-15T03:59:58.528Z,99787.34
2022-10-15T04:02:26.144Z,99801.72
2022-10-15T04:04:55.368Z,99794.44
2022-10-15T04:07:28.181Z,99790.69
2022-10-15T04:09:54.885Z,99796.09
2022-10-15T04:12:28.012Z,99791.75
2022-10-15T04:14:54.772Z,99797.81
2022-10-15T04:17:21.578Z,99796.97
2022-10-15T04:19:48.259Z,99803.66
2022-10-15T04:22:14.928Z,99796.09
2022-10-15T04:24:41.843Z,99805.25
2022-10-15T04:27:08.790Z,99802.66
2022-10-15T04:29:35.456Z,99802.94
2022-10-15T04:32:02.095Z,99796.91
2022-10-15T04:34:28.746Z,99802.59
2022-10-15T04:36:59.590Z,99807.75
2022-10-15T05:01:09.885Z,99821.69
2022-10-15T05:46:40.070Z,99876.56
2022-10-15T05:57:11.067Z,99866.13
2022-10-15T06:53:32.217Z,99906.91
2022-10-15T07:25:43.016Z,99905.91
2022-10-15T07:38:57.759Z,99912.72
2022-10-15T08:40:37.628Z,99929.81
2022-10-15T08:43:06.933Z,99931.31
2022-10-15T09:34:02.594Z,99958.84
2022-10-15T09:48:19.735Z,99961.31
2022-10-15T10:48:24.068Z,99950.41
2022-10-15T10:54:05.413Z,99937.69
2022-10-15T10:56:39.514Z,99945.53
2022-10-15T10:59:42.923Z,99947.34
2022-10-15T12:03:55.938Z,99931.28
2022-10-15T12:06:37.156Z,99928.78
2022-10-15T12:09:14.000Z,99928.75
2022-10-15T12:12:10.913Z,99927.69
2022-10-15T12:15:42.649Z,99916.19
2022-10-15T12:18:21.518Z,99914.91
2022-10-15T12:20:48.215Z,99912.59
2022-10-15T12:23:42.524Z,99904.44
2022-10-15T12:26:24.420Z,99913.78
2022-10-15T12:28:59.409Z,99910.25
2022-10-15T12:31:55.718Z,99898.72
2022-10-15T12:34:39.355Z,99884.72
2022-10-15T12:37:19.434Z,99885.75
2022-10-15T12:39:54.276Z,99887.81
2022-10-15T12:42:38.643Z,99893.94
2022-10-15T12:45:35.865Z,99902.34
2022-10-15T12:48:05.856Z,99898.13
2022-10-15T12:50:37.457Z,99896.66
2022-10-15T12:53:33.120Z,99894.75
2022-10-15T12:56:16.347Z,99878.63
2022-10-15T12:58:51.625Z,99881.56
2022-10-15T13:01:21.350Z,99881.75
2022-10-15T13:03:51.180Z,99883.06
2022-10-15T13:06:33.956Z,99877.84
2022-10-15T13:09:09.766Z,99884.53
2022-10-15T13:11:59.727Z,99887.25
2022-10-15T13:14:42.759Z,99872.56
2022-10-15T13:17:22.434Z,99860.94
2022-10-15T13:20:04.498Z,99869.16
2022-10-15T13:22:35.088Z,99866.53
2022-10-15T13:25:06.448Z,99863.56
2022-10-15T13:27:37.693Z,99861.34
2022-10-15T13:30:26.593Z,99864.38
2022-10-15T13:32:56.769Z,99863.13
2022-10-15T13:35:41.840Z,99870.09
2022-10-15T13:38:25.963Z,99874.75
2022-10-15T13:40:57.104Z,99872.66
2022-10-15T13:43:29.934Z,99878.94
2022-10-15T13:46:02.224Z,99884.56
2022-10-15T13:48:33.403Z,99874.09
2022-10-15T13:51:07.286Z,99869.91
2022-10-15T13:53:43.603Z,99864.94
2022-10-15T13:56:32.236Z,99855.69
2022-10-15T13:59:03.293Z,99863.84
2022-10-15T14:01:34.395Z,99858.56
2022-10-15T14:04:04.157Z,99854.78
2022-10-15T14:06:38.532Z,99853.53
2022-10-15T14:09:28.416Z,99859.59
2022-10-15T14:11:59.198Z,99852.44
2022-10-15T14:14:49.563Z,99862.97
2022-10-15T14:17:28.720Z,99858.66
2022-10-15T14:20:26.922Z,99862.63
2022-10-15T14:22:57.957Z,99855.50
2022-10-15T14:25:27.525Z,99857.16
2022-10-15T14:27:54.831Z,99858.03
2022-10-15T14:30:32.971Z,99852.75
2022-10-15T14:32:59.711Z,99844.00
2022-10-15T14:35:35.151Z,99833.50
2022-10-15T14:38:08.552Z,99838.09
2022-10-15T14:40:35.695Z,99838.34
2022-10-15T14:43:16.076Z,99840.66
2022-10-15T14:46:00.758Z,99816.97
2022-10-15T14:48:40.656Z,99823.03
2022-10-15T14:51:39.420Z,99828.06
2022-10-15T14:54:06.266Z,99836.19
2022-10-15T14:56:33.917Z,99838.66
2022-10-15T14:59:09.009Z,99836.31
2022-10-15T15:01:35.854Z,99845.44
2022-10-15T15:04:02.658Z,99835.56
2022-10-15T15:06:29.256Z,99839.28
2022-10-15T15:08:56.034Z,99843.28
2022-10-15T15:11:25.855Z,99856.72
2022-10-15T15:13:55.452Z,99853.78
2022-10-15T15:16:22.420Z,99851.09
2022-10-15T15:18:49.121Z,99858.88
2022-10-15T15:21:23.651Z,99857.44
2022-10-15T15:23:53.345Z,99845.91
2022-10-15T15:26:20.050Z,99843.81
2022-10-15T15:28:46.817Z,99836.47
2022-10-15T15:31:20.407Z,99835.00
2022-10-15T15:33:47.258Z,99838.72
2022-10-15T15:36:22.413Z,99835.97
2022-10-15T15:38:50.490Z,99838.44
2022-10-15T15:41:22.550Z,99834.44
2022-10-15T15:43:49.891Z,99829.44
2022-10-15T15:46:16.992Z,99833.56
2022-10-15T15:48:44.307Z,99837.13
2022-10-15T15:51:26.824Z,99840.03
2022-10-15T15:53:54.115Z,99832.66
2022-10-15T15:56:22.436Z,99828.06
2022-10-15T15:58:50.356Z,99823.25
2022-10-15T16:01:19.782Z,99825.91
2022-10-15T16:03:46.952Z,99820.25
2022-10-15T16:06:14.065Z,99824.84
2022-10-15T16:08:40.859Z,99826.69
2022-10-15T16:11:08.043Z,99825.19
2022-10-15T16:13:35.520Z,99826.66
2022-10-15T16:16:02.718Z,99830.38
2022-10-15T16:18:29.540Z,99818.84
2022-10-15T16:20:56.719Z,99824.03
2022-10-15T16:23:23.448Z,99829.47
2022-10-15T16:25:50.243Z,99831.16
2022-10-15T16:28:17.055Z,99830.25
2022-10-15T16:30:44.025Z,99833.53
2022-10-15T16:33:10.697Z,99826.81
2022-10-15T17:43:28.656Z,99830.56
2022-10-15T17:59:36.930Z,99826.19
2022-10-15T19:07:07.328Z,99831.56
2022-10-15T20:11:54.313Z,99881.44
2022-10-15T20:35:55.035Z,99916.28
2022-10-15T20:49:46.528Z,99935.53
2022-10-15T20:52:15.669Z,99938.41
2022-10-15T20:54:45.642Z,99945.50
2022-10-15T20:57:12.894Z,99947.09
2022-10-15T20:59:39.825Z,99956.22
2022-10-15T21:02:07.296Z,99954.53
2022-10-15T21:04:34.086Z,99955.31
2022-10-15T21:07:00.752Z,99962.81
2022-10-15T21:09:27.471Z,99962.81
2022-10-15T21:11:54.198Z,99968.69
2022-10-15T21:14:20.885Z,99965.97
2022-10-15T21:16:47.559Z,99971.38
2022-10-15T21:19:14.534Z,99972.03
2022-10-15T21:21:41.338Z,99982.31
2022-10-15T21:24:07.939Z,99989.66
2022-10-15T21:26:34.621Z,99983.59
2022-10-15T21:29:01.363Z,99991.91
2022-10-15T21:31:28.315Z,100000.28
2022-10-15T21:33:58.821Z,99999.69
2022-10-15T21:36:28.790Z,99991.75
2022-10-15T21:39:06.763Z,100000.13
2022-10-15T21:41:37.858Z,100006.78
2022-10-15T21:44:07.909Z,100010.91
2022-10-15T21:46:35.339Z,100021.97
2022-10-15T21:49:05.450Z,100015.91
2022-10-15T21:51:36.153Z,100016.50
2022-10-15T21:54:06.345Z,100024.75
2022-10-15T21:56:34.380Z,100028.44
2022-10-15T21:59:03.973Z,100035.78
2022-10-15T22:01:39.901Z,100044.31
2022-10-15T22:04:11.388Z,100049.06
2022-10-15T22:06:40.487Z,100055.91
2022-10-15T22:09:09.866Z,100055.38
2022-10-15T22:11:42.426Z,100046.97
2022-10-15T22:14:13.439Z,100054.56
2022-10-15T22:16:41.905Z,100065.88
2022-10-15T22:19:18.286Z,100063.25
2022-10-15T22:21:45.949Z,100068.66
2022-10-15T22:24:18.725Z,100066.81
2022-10-15T22:26:50.577Z,100068.22
2022-10-15T22:29:25.670Z,100076.34
2022-10-15T22:31:56.244Z,100077.91
2022-10-15T22:34:23.886Z,100079.97
2022-10-15T22:36:51.483Z,100080.75
2022-10-15T22:39:19.444Z,100082.78
2022-10-15T22:41:48.679Z,100081.28
2022-10-15T22:44:20.692Z,100077.56
2022-10-15T22:46:49.381Z,100085.03
2022-10-15T22:49:21.153Z,100083.72
2022-10-15T22:51:50.150Z,100085.31
2022-10-15T22:54:21.778Z,100087.16
2022-10-15T22:56:50.834Z,100094.00
2022-10-15T22:59:18.333Z,100094.34
2022-10-15T23:01:48.205Z,100093.88
2022-10-15T23:04:16.370Z,100085.44
2022-10-15T23:06:44.011Z,100090.69
2022-10-15T23:09:17.738Z,100100.19
2022-10-15T23:11:45.529Z,100096.00
2022-10-15T23:14:16.076Z,100095.88
2022-10-15T23:16:47.793Z,100096.63
2022-10-15T23:19:22.404Z,100096.63
2022-10-15T23:21:51.291Z,100098.47
2022-10-15T23:24:23.031Z,100101.56
2022-10-15T23:26:51.133Z,100089.41
2022-10-15T23:29:25.361Z,100095.50
2022-10-15T23:31:53.891Z,100096.88
2022-10-15T23:34:26.156Z,100103.00
2022-10-15T23:36:53.987Z,100098.81
2022-10-15T23:39:25.958Z,100097.97
2022-10-15T23:41:54.823Z,100093.59
2022-10-15T23:44:25.542Z,100092.28
2022-10-15T23:46:52.895Z,100093.16
2022-10-15T23:49:19.764Z,100099.31
2022-10-15T23:51:46.573Z,100090.03
2022-10-15T23:54:19.047Z,100094.13
2022-10-15T23:56:47.382Z,100091.91
2022-10-15T23:59:17.130Z,100100.72
